• Join FlightAware (Why Join?)
  • Login
  • US Flag 
02:01AM EDT


 

Airport Tracker/Info


-or-


 

Live Flight TrackerFlight Track Log ✈ SWA1960 ✈ 26-Apr-2013 ✈ KBWI - KCHS

Flight Track Log - Related Links

Times and Time Zones

All times are in EDT time to prevent confusion due to time zone crossing. See the SWA1960 flight status page for this flight to view local times or setup timezone preferences in your user account.

Time Position Orientation Groundspeed Altitude Reporting Facility
EDT Latitude Longitude Course Direction KTS MPH feet Rate Location/Type
02:21PM 39.1667 -76.7167 150° Southeast 177 204 1,900  Level Potomac TRACON
02:22PM 39.1000 -76.6667 150° Southeast 243 280 4,400 2,880 Climbing Potomac TRACON
02:23PM 39.0500 -76.6000 134° Southeast 277 319 7,800 3,180 Climbing Potomac TRACON
02:24PM 38.9833 -76.5333 142° Southeast 318 366 10,900 3,000 Climbing Potomac TRACON
02:25PM 38.9167 -76.4500 136° Southeast 372 428 13,800 1,500 Climbing Potomac TRACON
02:26PM 38.8333 -76.4833 197° South 339 390 14,000 660 Climbing Potomac TRACON
02:28PM 38.6608 -76.6339 214° Southwest 349 402 16,100 1,380 Climbing Washington Center
02:29PM 38.5831 -76.7044 215° Southwest 344 396 18,700 2,640 Climbing Washington Center
02:30PM 38.4764 -76.7189 186° South 354 407 21,500 2,100 Climbing Washington Center
02:31PM 38.3619 -76.7039 174° South 386 444 23,000 1,200 Climbing Washington Center
02:32PM 38.2494 -76.6864 173° South 394 453 23,900 1,440 Climbing Washington Center
02:33PM 38.1308 -76.6689 173° South 417 480 25,900 1,920 Climbing Washington Center
02:34PM 38.0058 -76.6511 174° South 441 507 27,800 1,380 Climbing Washington Center
02:35PM 37.8786 -76.6547 181° South 453 521 28,700 1,200 Climbing Washington Center
02:36PM 37.7511 -76.6711 186° South 463 533 30,300 1,680 Climbing Washington Center
02:37PM 37.6197 -76.6878 186° South 469 540 32,100 1,980 Climbing Washington Center
02:38PM 37.4861 -76.7042 186° South 479 551 34,200 1,920 Climbing Washington Center
02:39PM 37.3628 -76.7417 194° South 479 551 36,000 840 Climbing Washington Center
02:40PM 37.2453 -76.7919 199° South 460 529 36,000  Level Washington Center
02:41PM 37.1281 -76.8422 199° South 455 524 36,000  Level Washington Center
02:42PM 37.0086 -76.8922 198° South 455 524 36,000  Level Washington Center
02:43PM 36.8911 -76.9397 198° South 455 524 36,000  Level Washington Center
02:44PM 36.7739 -76.9894 199° South 450 518 36,000  Level Washington Center
02:45PM 36.6644 -77.0550 206° Southwest 450 518 36,000  Level Washington Center
02:46PM 36.5675 -77.1436 216° Southwest 437 503 36,000  Level Washington Center
02:47PM 36.4725 -77.2269 215° Southwest 432 497 36,000  Level Washington Center
02:48PM 36.3775 -77.3100 215° Southwest 432 497 36,000  Level Washington Center
02:49PM 36.2803 -77.3956 215° Southwest 432 497 36,000  Level Washington Center
02:50PM 36.1764 -77.4911 217° Southwest 432 497 36,000  Level Washington Center
02:51PM 36.0769 -77.5761 215° Southwest 432 497 36,000  Level Washington Center
02:52PM 35.9775 -77.6608 215° Southwest 432 497 36,000  Level Washington Center
02:53PM 35.8781 -77.7478 215° Southwest 432 497 36,000  Level Washington Center
02:54PM 35.7783 -77.8322 214° Southwest 432 497 36,000  Level Washington Center
02:55PM 35.6806 -77.9217 217° Southwest 432 497 36,000  Level Washington Center
02:56PM 35.5917 -77.9956 214° Southwest 432 497 36,000  Level Washington Center
02:57PM 35.4917 -78.0794 214° Southwest 432 497 36,000  Level Washington Center
02:58PM 35.3919 -78.1603 213° Southwest 432 497 36,000  Level Washington Center
02:59PM 35.2881 -78.2408 212° Southwest 438 504 36,000  Level Washington Center
03:00PM 35.1861 -78.3189 212° Southwest 438 504 36,000  Level Washington Center
03:01PM 35.0842 -78.3967 212° Southwest 444 511 36,000  Level Washington Center
03:02PM 34.9842 -78.4769 213° Southwest 444 511 36,000  Level Washington Center
03:04PM 34.7764 -78.6339 212° Southwest 459 528 36,000  Level Jacksonville Center
03:05PM 34.6747 -78.7122 212° Southwest 459 528 36,000 -960 Level Jacksonville Center
03:06PM 34.5708 -78.7878 211° Southwest 454 522 34,100 -2,100 Descending Jacksonville Center
03:07PM 34.4753 -78.8703 215° Southwest 440 506 31,900 -2,100 Descending Jacksonville Center
03:08PM 34.3756 -78.9481 213° Southwest 433 498 29,900 -1,980 Descending Jacksonville Center
03:09PM 34.2842 -79.0225 214° Southwest 422 486 28,000 -1,980 Descending Jacksonville Center
03:10PM 34.1944 -79.0992 215° Southwest 403 464 26,000 -1,980 Descending Jacksonville Center
03:11PM 34.1069 -79.1708 214° Southwest 392 451 24,100 -1,200 Descending Jacksonville Center
03:12PM 33.9972 -79.1981 192° South 381 438 23,600 -780 Descending Jacksonville Center
03:13PM 33.8914 -79.2175 189° South 387 445 22,600 -1,740 Descending Jacksonville Center
03:14PM 33.7856 -79.2419 191° South 392 451 20,200 -1,860 Descending Jacksonville Center
03:15PM 33.6814 -79.3161 211° Southwest 378 435 18,900 -1,680 Descending Jacksonville Center
03:16PM 33.5853 -79.3897 213° Southwest 397 457 16,900 -2,280 Descending Jacksonville Center
03:17PM 33.4892 -79.4608 212° Southwest 404 465 14,400 -2,340 Descending Jacksonville Center
03:18PM 33.3992 -79.5289 212° Southwest 411 473 12,300 -1,740 Descending Jacksonville Center
03:19PM 33.3114 -79.5944 212° Southwest 391 450 11,000 -720 Descending Jacksonville Center
03:20PM 33.2275 -79.6594 213° Southwest 379 436 10,900 -60 Descending Jacksonville Center
03:21PM 33.1536 -79.7144 212° Southwest 350 403 10,900 -600 Level Jacksonville Center
03:22PM 33.0861 -79.7689 214° Southwest 317 365 9,700 -1,440 Descending Jacksonville Center
03:23PM 33.0186 -79.8206 213° Southwest 302 348 8,100 -1,680 Descending Jacksonville Center
03:24PM 32.9531 -79.8725 214° Southwest 296 341 6,400 -1,440 Descending Jacksonville Center
03:25PM 32.8914 -79.9189 212° Southwest 284 327 5,300 -1,080 Descending Jacksonville Center
03:26PM 32.8383 -79.9628 215° Southwest 260 299 4,300 -900 Descending Jacksonville Center
03:27PM 32.7931 -79.9939 210° Southwest 225 259 3,600 -900 Descending Jacksonville Center
03:28PM 32.7733 -80.0439 245° Southwest 169 194 2,600 -1,020 Descending Jacksonville Center
03:31PM 32.8833 -80.0333 348° North  Level FlightAware Approximate